Ann Arbor, MI (48103)

6:36 AM EST on February 13, 2016 (GMT -0500)
Polo Fields | | Change Station
CLOSE
Current Station
Personal Weather Station
Location: Ann Arbor, MI
Elevation: 912 ft
Nearby Weather Stations

Elev 912 ft 42.27 °N, 83.82 °W | Updated 3 seconds ago

Clear
Clear
0.7 °F
Feels Like 1 °F
N
2.2
Wind Variable Wind from West
Gusts 6.3 mph

Today
High -- | Low -- °F
--% Chance of Precip.
Yesterday
High -- | Low -- °F
Precip. -- in
Pressure 30.43 in
Visibility 10.0 miles
Clouds Clear
Windchill 1 °F
Dew Point -4 °F
Humidity 81%
Rainfall 0.00 in
Snow Depth Not available.
7:34 AM 6:04 PM
Waxing Crescent, 30% visible
METAR KARB 131053Z AUTO 28005KT 10SM CLR M18/M22 A3037 RMK AO2 SLP303 T11831222 TSNO
Pressure 30.43 in
Visibility 10.0 miles
Clouds Clear
Windchill 1 °F
Dew Point -4 °F
Humidity 81%
Rainfall 0.00 in
Snow Depth Not available.
7:34 AM 6:04 PM
Waxing Crescent, 30% visible
METAR KARB 131053Z AUTO 28005KT 10SM CLR M18/M22 A3037 RMK AO2 SLP303 T11831222 TSNO

10-Day Weather Forecast

Almanac

Astronomy

Feb. 13, 2016 Rise Set
Actual Time
Civil Twilight
Nautical Twilight
Astronomical Twilight
Moon
Length of Visible Light
Length of Day
Tomorrow will be .
, % of the Moon is Illuminated

Today's Extremes

State Highs State Lows

Community

WunderPhotos

Upload Photos

1,892,541 photos uploaded!

WunderBlog® & News

Nearby

Air Quality

  Air Quality AQ Index Pollutant
Not available.

Snow Depth

Station Depth Elevation

Earthquake Activity

City Distance Mag. Time & Date
Minimum magnitude displayed is 2.5.

Coastal Water Temperatures

Place Temperature

Stations

Nearby Weather Stations

Station Location Temp. Windchill Dew Point Humidity Wind Precip. Elev Updated Type
                   

Watches & Warnings

There are currently no watches in effect.